Tiempo atmosférico en la estación meteorológica de Blanes, Girona (60 m.)



Fecha
DESCASC
Temp. máxima en grados centígrados (hora)
DESCASC
Temp. mínima en grados centígrados (hora)
DESCASC
Temp. media en grados centígrados
DESCASC
Racha de viento máxima en m/sg (hora)
DESCASC
Velocidad máxima media en intervalos de 10 minutos(hora)
DESCASC
Precipitaciones diarias en mm
DESCASC
Precipitaciones de 00:00 a 06:00 en mm
DESCASC
Precipitaciones de 06:00 a 12:00 en mm
DESCASC
Precipitaciones de 12:00 a 18:00 en mm
DESCASC
Precipitaciones de 18:00 a 24:00 en mm
DESCASC
13-10-2019 25.3 (15:20) 20 (07:00) 22.6 5 (11:10) 3.61 (11:10) 0 0 0 0 0
12-10-2019 25.4 (14:30) 19.8 (05:40) 22.6 5.83 (03:30) 3.33 (09:10) 0 0 0 0 0
11-10-2019 24.6 (13:10) 17.4 (03:20) 21 11.67 (14:30) 7.22 (14:40) 0 0 0 0 0
10-10-2019 22.6 (15:50) 16.2 (00:00) 19.4 5.83 (08:00) 3.61 (08:10) 0.4 0 0.2 0.2 0
09-10-2019 24.7 (12:10) 17.1 (00:00) 20.9 11.11 (14:40) 7.22 (15:00) 0.6 0 0 0 0.6
08-10-2019 24.1 (13:40) 16.9 (00:00) 20.5 17.22 (13:50) 7.78 (13:50) 0 0 0 0 0
07-10-2019 24.4 (13:10) 16.2 (00:00) 20.3 10.28 (08:40) 6.11 (05:20) 0 0 0 0 0
06-10-2019 23.6 (13:50) 16.9 (00:00) 20.3 5.83 (15:40) 3.33 (02:10) 0 0 0 0 0
05-10-2019 23.8 (12:00) 18.2 (00:00) 21 6.94 (06:00) 4.44 (06:00) 0 0 0 0 0
04-10-2019 25.9 (16:30) 16.1 (00:00) 21 5.28 (21:40) 3.33 (07:20) 0 0 0 0 0
03-10-2019 24.6 (16:20) 16.6 (00:00) 20.6 6.11 (06:40) 3.89 (02:40) 0 0 0 0 0
02-10-2019 26 (14:30) 17 (00:00) 21.5 10 (12:00) 6.39 (11:50) 0 0 0 0 0
01-10-2019 26.9 (15:20) 17.9 (00:00) 22.4 9.44 (17:20) 5.56 (17:10) 0 0 0 0 0
30-09-2019 25.4 (15:30) 19.4 (00:00) 22.4 11.67 (13:30) 7.22 (14:30) 0 0 0 0 0
29-09-2019 26 (13:50) 18.6 (00:00) 22.3 13.33 (14:10) 5.83 (15:20) 0 0 0 0 0
28-09-2019 25.4 (11:50) 19.5 (00:00) 22.4 6.94 (13:20) 4.72 (13:30) 0 0 0 0 0
27-09-2019 26.8 (14:40) 19.4 (00:00) 23.1 8.89 (17:40) 5 (16:50) 0 0 0 0 0
26-09-2019 25.1 (13:20) 18.8 (00:00) 21.9 7.78 (20:40) 3.61 (05:30) 0 0 0 0 0
25-09-2019 25.1 (14:20) 18.6 (00:00) 21.9 6.67 (02:10) 5 (02:10) 0 0 0 0 0
24-09-2019 26.4 (12:50) 17.5 (00:00) 21.9 10.83 (11:00) 5.56 (11:20) 0 0 0 0 0
23-09-2019 25.3 (15:10) 17.1 (00:00) 21.2 10.28 (18:50) 5.56 (18:50) 0 0 0 0 0
22-09-2019 25.2 (16:00) 17.6 (00:00) 21.4 12.78 (15:00) 7.78 (13:30) 8 0 0 0 8
21-09-2019 21.2 (07:00) 18.5 (00:00) 19.9 8.06 (11:40) 5.83 (03:00) 24 0 13.6 10.4 0
20-09-2019 25 (11:10) 19.1 (00:00) 22.1 10 (17:30) 6.67 (17:10) 0 0 0 0 0
19-09-2019 26.3 (12:10) 19.9 (00:00) 23.1 11.67 (01:30) 7.22 (01:30) 1.2 1.2 0 0 0
18-09-2019 27.3 (12:50) 19.8 (00:00) 23.5 8.61 (20:30) 5.28 (23:50) 0 0 0 0 0
17-09-2019 28.4 (13:50) 19.2 (00:00) 23.8 5.56 (19:00) 3.61 (19:00) 0 0 0 0 0
16-09-2019 25.5 (12:30) 20.2 (00:00) 22.9 7.22 (05:40) 5.28 (05:40) 0 0 0 0 0

Gráficas

Temp. máximas Temp. mínimas Temp. medias Precipitaciones Rachas de viento máximas Velocidades máximas media en intervalos de 10 minutos

Datos horarios

Fecha y hora oficial Temperatura (ºC) Velocidad del viento (km/h) Dirección del viento Racha (km/h) Dirección de racha Precipitación (mm) Presión (hPa) Tendencia (hPa) Humedad (%)
2019-10-15 23:00:00 16 6 Norte 11 Norte 0 -- -- 71
2019-10-15 22:00:00 16.5 8 Norte 13 Nordeste 0 -- -- 68
2019-10-15 21:00:00 17.7 4 Este 18 Este 0 -- -- 66
2019-10-15 20:00:00 17.7 9 Este 22 Este 0 -- -- 64
2019-10-15 19:00:00 17.9 8 Este 15 Sudeste 0 -- -- 61
2019-10-15 18:00:00 19.7 6 Este 15 Este 0 -- -- 58
2019-10-15 17:00:00 20.6 4 Este 19 Sudeste 0 -- -- 55
2019-10-15 16:00:00 20.7 8 Este 20 Nordeste 0 -- -- 54
2019-10-15 15:00:00 20.4 12 Este 20 Este 0 -- -- 58
2019-10-15 14:00:00 21.7 6 Este 15 Este 0 -- -- 51
2019-10-15 13:00:00 21.8 7 Sur 15 Sur 0 -- -- 57
2019-10-15 12:00:00 19.6 5 Noroeste 15 Sudoeste 0 -- -- 59
2019-10-15 11:00:00 18.6 5 Sur 12 Norte 0 -- -- 73
2019-10-15 10:00:00 16.6 6 Oeste 19 Norte 0 -- -- 80
2019-10-15 09:00:00 14.5 10 Norte 23 Norte 0 -- -- 82
2019-10-15 08:00:00 14.6 13 Norte 19 Noroeste 0 -- -- 79
2019-10-15 07:00:00 14.1 10 Norte 14 Norte 0 -- -- 94
2019-10-15 06:00:00 15.3 0 Calma 9 Norte 0 -- -- 99
2019-10-15 05:00:00 15.9 0 Calma 6 Noroeste 0 -- -- 99
2019-10-15 04:00:00 15.8 5 Oeste 42 Oeste 13.8 -- -- 98
2019-10-15 03:00:00 18.9 4 Nordeste 22 Sudoeste 1.6 -- -- 98
2019-10-15 02:00:00 19.2 2 Nordeste 12 Oeste 0 -- -- 97
2019-10-15 01:00:00 19.3 6 Sudoeste 14 Oeste 0 -- -- 97
2019-10-15 00:00:00 19.9 6 Oeste 15 Sudoeste 0 -- -- 98
2019-10-14 23:00:00 19.7 7 Oeste 13 Noroeste 0.2 -- -- 98
2019-10-14 22:00:00 20.4 0 Calma 9 Nordeste 0 -- -- 98
2019-10-14 21:00:00 21.1 3 Nordeste 15 Este 0.6 -- -- 98
2019-10-14 20:00:00 21.6 7 Sudeste 12 Sudeste 1.4 -- -- 97
2019-10-14 19:00:00 21.7 2 Sur 12 Este 0 -- -- 96
2019-10-14 18:00:00 22.2 3 Este 6 Nordeste 0 -- -- 93
2019-10-14 17:00:00 22.7 5 Este 10 Este 0 -- -- 92
2019-10-14 16:00:00 22.5 7 Este 17 Este 0 -- -- 93
2019-10-14 15:00:00 22.7 14 Este 24 Este 0 -- -- 91
2019-10-14 14:00:00 23.2 15 Este 23 Nordeste 0 -- -- 88
2019-10-14 13:00:00 23.9 7 Este 14 Este 0 -- -- 85
2019-10-14 12:00:00 23.3 9 Este 21 Este 0 -- -- 89
2019-10-14 11:00:00 21.7 7 Norte 20 Este 0 -- -- 87
2019-10-14 10:00:00 21.2 11 Nordeste 26 Nordeste 0 -- -- 97
2019-10-14 09:00:00 20.8 12 Nordeste 21 Nordeste 0 -- -- 97
2019-10-14 08:00:00 20.5 8 Nordeste 16 Este 0 -- -- 97
2019-10-14 07:00:00 20.5 9 Este 16 Este 0 -- -- 97
2019-10-14 06:00:00 20.4 10 Nordeste 19 Nordeste 0 -- -- 96
2019-10-14 05:00:00 20.4 6 Nordeste 11 Este 0 -- -- 96
2019-10-14 04:00:00 20.3 6 Nordeste 14 Nordeste 0 -- -- 95
2019-10-14 03:00:00 20 9 Nordeste 15 Nordeste 0 -- -- 93
2019-10-14 02:00:00 20.1 4 Nordeste 14 Este 0 -- -- 95
2019-10-14 01:00:00 20 7 Nordeste 13 Nordeste 0 -- -- 96
2019-10-14 00:00:00 20.5 7 Este 13 Este 0 -- -- 96
2019-10-13 23:00:00 20.8 7 Nordeste 12 Este 0 -- -- 96
2019-10-13 22:00:00 20.8 7 Este 14 Nordeste 0 -- -- 96
2019-10-13 21:00:00 20.8 7 Este 17 Este 0 -- -- 95
2019-10-13 20:00:00 21 6 Este 12 Este 0 -- -- 93
2019-10-13 19:00:00 21.5 4 Este 12 Este 0 -- -- 90
2019-10-13 18:00:00 22.6 3 Noroeste 13 Sudeste 0 -- -- 85
2019-10-13 17:00:00 23.3 6 Sur 14 Sur 0 -- -- 84
2019-10-13 16:00:00 24.7 5 Sudeste 14 Sur 0 -- -- 79
2019-10-13 15:00:00 24.9 5 Este 16 Este 0 -- -- 81
2019-10-13 14:00:00 23.6 9 Este 15 Este 0 -- -- 85
2019-10-13 13:00:00 23.7 7 Nordeste 15 Este 0 -- -- 84
2019-10-13 12:00:00 22.8 10 Este 18 Este 0 -- -- 88
2019-10-13 11:00:00 21.9 11 Este 15 Nordeste 0 -- -- 91
2019-10-13 10:00:00 21.4 9 Este 14 Este 0 -- -- 95
2019-10-13 09:00:00 20.3 3 Nordeste 6 Norte 0 -- -- 96
2019-10-13 08:00:00 20.4 3 Nordeste 7 Este 0 -- -- 96
2019-10-13 07:00:00 20 5 Norte 13 Este 0 -- -- 95
2019-10-13 06:00:00 20.5 2 Sudeste 8 Este 0 -- -- 95
2019-10-13 05:00:00 20.6 3 Este 9 Nordeste 0 -- -- 95
2019-10-13 04:00:00 20.4 5 Nordeste 10 Nordeste 0 -- -- 94
2019-10-13 03:00:00 20.3 5 Norte 9 Norte 0 -- -- 93
2019-10-13 02:00:00 20.5 4 Noroeste 9 Noroeste 0 -- -- 93
2019-10-13 01:00:00 20.5 3 Norte 9 Nordeste 0 -- -- 93
2019-10-13 00:00:00 20.3 2 Nordeste 5 Este 0 -- -- 94
2019-10-12 23:00:00 20.2 2 Nordeste 6 Sudeste 0 -- -- 94
2019-10-12 22:00:00 20.2 3 Sudeste 8 Sudeste 0 -- -- 94
2019-10-12 21:00:00 20.5 3 Sudeste 8 Sur 0 -- -- 93
2019-10-12 20:00:00 20.6 4 Sur 8 Sur 0 -- -- 90
2019-10-12 19:00:00 21.4 5 Sur 14 Sudoeste 0 -- -- 86
2019-10-12 18:00:00 22.4 8 Sur 15 Sur 0 -- -- 83
2019-10-12 17:00:00 23.6 9 Sur 17 Sur 0 -- -- 79
2019-10-12 16:00:00 25.1 10 Sur 17 Sudeste 0 -- -- 73
2019-10-12 15:00:00 24.6 9 Sur 18 Sudoeste 0 -- -- 73
2019-10-12 14:00:00 24.8 6 Sur 17 Sur 0 -- -- 75
2019-10-12 13:00:00 23.7 9 Sur 15 Sur 0 -- -- 81
2019-10-12 12:00:00 22.7 8 Sur 18 Sudoeste 0 -- -- 88
2019-10-12 11:00:00 21.5 8 Sur 15 Sudeste 0 -- -- 93
2019-10-12 10:00:00 21.4 9 Sudoeste 21 Sudoeste 0 -- -- 94
2019-10-12 09:00:00 20.8 8 Sudoeste 20 Sur 0 -- -- 95
2019-10-12 08:00:00 20.4 8 Sur 19 Sur 0 -- -- 96
2019-10-12 07:00:00 20 8 Oeste 13 Sudoeste 0 -- -- 96
2019-10-12 06:00:00 19.8 5 Sudoeste 15 Sudoeste 0 -- -- 96
2019-10-12 05:00:00 20 8 Oeste 18 Sudoeste 0 -- -- 96
2019-10-12 04:00:00 20.1 6 Sudoeste 21 Sur 0 -- -- 94
2019-10-12 03:00:00 20 9 Sudoeste 19 Oeste 0 -- -- 93
2019-10-12 02:00:00 20.3 6 Sudoeste 21 Oeste 0 -- -- 95
2019-10-12 01:00:00 20.4 9 Oeste 18 Sudoeste 0 -- -- 94
2019-10-12 00:00:00 20.5 8 Sudoeste 21 Sur 0 -- -- 94
2019-10-11 23:00:00 20.5 10 Sudoeste 32 Oeste 0 -- -- 94
2019-10-11 22:00:00 20.8 12 Sudoeste 29 Sudoeste 0 -- -- 95
2019-10-11 21:00:00 20.9 15 Sudoeste 34 Oeste 0 -- -- 94
2019-10-11 20:00:00 21.1 14 Sudoeste 35 Oeste 0 -- -- 92
2019-10-11 19:00:00 21.6 14 Sudoeste 40 Sur 0 -- -- 88
2019-10-11 18:00:00 22.7 14 Sudoeste 36 Sudoeste 0 -- -- 82
2019-10-11 17:00:00 23.2 19 Sur 40 Sur 0 -- -- 78
2019-10-11 16:00:00 23.6 18 Sudoeste 41 Sur 0 -- -- 75
2019-10-11 15:00:00 23.9 26 Sur 42 Sur 0 -- -- 73
2019-10-11 14:00:00 24.4 22 Sur 37 Sudoeste 0 -- -- 71
2019-10-11 13:00:00 24.4 10 Sur 23 Sudoeste 0 -- -- 72
2019-10-11 12:00:00 22.6 5 Sur 8 Sur 0 -- -- 74
2019-10-11 11:00:00 22.2 5 Sur 7 Sudeste 0 -- -- 74
2019-10-11 10:00:00 19.7 2 Este 8 Noroeste 0 -- -- 83
2019-10-11 09:00:00 18.1 2 Noroeste 12 Noroeste 0 -- -- 88
2019-10-11 08:00:00 17.6 4 Noroeste 5 Noroeste 0 -- -- 86
2019-10-11 07:00:00 17.8 2 Norte 4 Norte 0 -- -- 87
2019-10-11 06:00:00 17.9 2 Norte 8 Noroeste 0 -- -- 84
2019-10-11 05:00:00 17.9 6 Noroeste 15 Noroeste 0 -- -- 82
2019-10-11 04:00:00 17.5 9 Noroeste 14 Noroeste 0 -- -- 84
2019-10-11 03:00:00 17.8 4 Noroeste 13 Noroeste 0 -- -- 83
2019-10-11 02:00:00 18.1 5 Noroeste 14 Oeste 0 -- -- 82
2019-10-11 01:00:00 18.5 6 Noroeste 11 Oeste 0 -- -- 81
2019-10-11 00:00:00 18.6 5 Sudoeste 10 Sudoeste 0 -- -- 81
2019-10-10 23:00:00 18.8 5 Sudoeste 12 Oeste 0 -- -- 81
2019-10-10 22:00:00 19.2 3 Sudeste 13 Sudoeste 0 -- -- 78
2019-10-10 21:00:00 19.2 4 Sudoeste 13 Sur 0 -- -- 81
2019-10-10 20:00:00 19.4 6 Sur 12 Sur 0 -- -- 80
2019-10-10 19:00:00 20 6 Sur 17 Sur 0 -- -- 77
2019-10-10 18:00:00 21.4 8 Sur 16 Sur 0 -- -- 73
2019-10-10 17:00:00 21.8 6 Sur 12 Sudoeste 0 -- -- 70
2019-10-10 16:00:00 22.6 8 Sur 14 Sur 0 -- -- 64
2019-10-10 15:00:00 21.5 6 Sur 12 Sur 0 -- -- 66
2019-10-10 14:00:00 20.1 4 Sur 9 Sur 0 -- -- 79
2019-10-10 13:00:00 19.5 4 Sur 7 Sur 0.2 -- -- 87
2019-10-10 12:00:00 18.3 2 Sur 10 Norte 0 -- -- 89
2019-10-10 11:00:00 16.7 10 Norte 14 Norte 0 -- -- 95
2019-10-10 10:00:00 16.5 6 Norte 11 Este 0 -- -- 96
2019-10-10 09:00:00 16.5 6 Noroeste 19 Noroeste 0.2 -- -- 94
2019-10-10 08:00:00 17.4 9 Noroeste 21 Oeste 0 -- -- 86
2019-10-10 07:00:00 17.2 2 Nordeste 5 Oeste 0 -- -- 80
2019-10-10 06:00:00 16.7 0 Calma 4 Oeste 0 -- -- 78
2019-10-10 05:00:00 16.9 3 Sudoeste 5 Sur 0 -- -- 75
2019-10-10 04:00:00 17.1 3 Noroeste 7 Noroeste 0 -- -- 74
2019-10-10 03:00:00 17.4 5 Norte 10 Noroeste 0 -- -- 73
2019-10-10 02:00:00 17.6 9 Noroeste 14 Noroeste 0 -- -- 76
2019-10-10 01:00:00 17.6 8 Noroeste 13 Noroeste 0 -- -- 78
2019-10-10 00:00:00 17.6 8 Noroeste 13 Norte 0 -- -- 86
2019-10-09 23:00:00 17.3 6 Norte 10 Norte 0 -- -- 86
2019-10-09 22:00:00 17.1 7 Norte 13 Noroeste 0.2 -- -- 89
2019-10-09 21:00:00 17.3 2 Noroeste 12 Noroeste 0.2 -- -- 94
2019-10-09 20:00:00 17.4 5 Norte 12 Nordeste 0.2 -- -- 91
2019-10-09 19:00:00 17.8 7 Norte 12 Norte 0 -- -- 90
2019-10-09 18:00:00 18.6 10 Norte 21 Nordeste 0 -- -- 81
2019-10-09 17:00:00 19.1 14 Nordeste 36 Este 0 -- -- 75
2019-10-09 16:00:00 19.4 17 Este 36 Este 0 -- -- 78
2019-10-09 15:00:00 19.6 26 Este 40 Este 0 -- -- 84
2019-10-09 14:00:00 23.4 10 Sur 24 Sur 0 -- -- 75
2019-10-09 13:00:00 22.8 10 Sudoeste 31 Sudoeste 0 -- -- 76
2019-10-09 12:00:00 24.5 6 Sur 13 Sur 0 -- -- 75
2019-10-09 11:00:00 22.9 4 Sur 12 Sudoeste 0 -- -- 80
2019-10-09 10:00:00 20.9 4 Sudeste 6 Sur 0 -- -- 88
2019-10-09 09:00:00 18.6 3 Nordeste 5 Noroeste 0 -- -- 96
2019-10-09 08:00:00 18 2 Norte 6 Norte 0 -- -- 95
2019-10-09 07:00:00 17.9 0 Calma 5 Nordeste 0 -- -- 93
2019-10-09 06:00:00 18 3 Norte 4 Norte 0 -- -- 92
2019-10-09 05:00:00 18.4 0 Calma 5 Nordeste 0 -- -- 90
2019-10-09 04:00:00 18.6 4 Norte 8 Nordeste 0 -- -- 89
2019-10-09 03:00:00 18.9 3 Nordeste 6 Nordeste 0 -- -- 88
2019-10-09 02:00:00 19.5 3 Este 8 Norte 0 -- -- 80
2019-10-09 01:00:00 20.3 2 Norte 12 Sudoeste 0 -- -- 75
2019-10-09 00:00:00 20.7 7 Oeste 18 Noroeste 0 -- -- 75
2019-10-08 23:00:00 21.2 8 Noroeste 18 Sudoeste 0 -- -- 73
2019-10-08 22:00:00 21.1 10 Sudoeste 33 Oeste 0 -- -- 82
2019-10-08 21:00:00 21.4 16 Sudoeste 39 Oeste 0 -- -- 85
2019-10-08 20:00:00 21.5 15 Sudoeste 41 Sudoeste 0 -- -- 85
2019-10-08 19:00:00 22 17 Sudoeste 39 Oeste 0 -- -- 83
2019-10-08 18:00:00 23 15 Sudoeste 45 Sur 0 -- -- 77
2019-10-08 17:00:00 23.5 18 Sudoeste 47 Sudoeste 0 -- -- 72
2019-10-08 16:00:00 23.8 24 Sur 51 Sudoeste 0 -- -- 66
2019-10-08 15:00:00 23.9 26 Sur 52 Sudoeste 0 -- -- 62
2019-10-08 14:00:00 24 28 Sur 62 Sudoeste 0 -- -- 64
2019-10-08 13:00:00 23.9 23 Sur 45 Sur 0 -- -- 67
2019-10-08 12:00:00 22.5 5 Sudeste 10 Sur 0 -- -- 70
2019-10-08 11:00:00 21.7 5 Sur 9 Sur 0 -- -- 69
2019-10-08 10:00:00 19.5 3 Sudoeste 5 Sudoeste 0 -- -- 76
2019-10-08 09:00:00 18.1 0 Calma 11 Noroeste 0 -- -- 83
2019-10-08 08:00:00 17.1 6 Noroeste 13 Noroeste 0 -- -- 84
2019-10-08 07:00:00 17.3 10 Noroeste 19 Noroeste 0 -- -- 80
2019-10-08 06:00:00 17.4 13 Noroeste 19 Noroeste 0 -- -- 79
2019-10-08 05:00:00 18 9 Noroeste 15 Oeste 0 -- -- 78
2019-10-08 04:00:00 18.1 3 Norte 18 Oeste 0 -- -- 75
2019-10-08 03:00:00 18.9 10 Oeste 18 Oeste 0 -- -- 72
2019-10-08 02:00:00 18.3 10 Noroeste 17 Noroeste 0 -- -- 75
2019-10-08 01:00:00 18.6 6 Oeste 18 Sudoeste 0 -- -- 76
2019-10-08 00:00:00 18.7 8 Oeste 20 Sudoeste 0 -- -- 81
2019-10-07 23:00:00 18.5 7 Sur 14 Sur 0 -- -- 89
2019-10-07 22:00:00 18.7 10 Sur 19 Sur 0 -- -- 88
2019-10-07 21:00:00 19.2 9 Sur 16 Sudeste 0 -- -- 85
2019-10-07 20:00:00 19.7 5 Sur 14 Sur 0 -- -- 75
2019-10-07 19:00:00 20.9 8 Sur 18 Sur 0 -- -- 67
2019-10-07 18:00:00 22.2 8 Sudoeste 20 Sudeste 0 -- -- 63
2019-10-07 17:00:00 23.3 9 Sudoeste 25 Sudoeste 0 -- -- 59
2019-10-07 16:00:00 22.5 10 Sur 19 Sudoeste 0 -- -- 56
2019-10-07 15:00:00 23.2 11 Sur 21 Sur 0 -- -- 60
2019-10-07 14:00:00 23.5 7 Sur 13 Sur 0 -- -- 58
2019-10-07 13:00:00 24.1 8 Sur 14 Sur 0 -- -- 49
2019-10-07 12:00:00 22.2 4 Norte 17 Noroeste 0 -- -- 48
2019-10-07 11:00:00 19.8 12 Noroeste 24 Norte 0 -- -- 48
2019-10-07 10:00:00 17.5 12 Norte 31 Norte 0 -- -- 53
2019-10-07 09:00:00 17 12 Norte 37 Norte 0 -- -- 53
2019-10-07 08:00:00 16.3 16 Norte 30 Norte 0 -- -- 51
2019-10-07 07:00:00 16.9 9 Norte 29 Nordeste 0 -- -- 51
2019-10-07 06:00:00 16.9 13 Norte 37 Norte 0 -- -- 57
2019-10-07 05:00:00 17.2 19 Norte 33 Norte 0 -- -- 64
2019-10-07 04:00:00 18.4 9 Norte 20 Norte 0 -- -- 76
2019-10-07 03:00:00 18.8 9 Norte 15 Norte 0 -- -- 82
2019-10-07 02:00:00 18.8 9 Norte 16 Norte 0 -- -- 82
2019-10-07 01:00:00 19.2 4 Norte 9 Nordeste 0 -- -- 80
2019-10-07 00:00:00 19.2 2 Sudeste 7 Sur 0 -- -- 80
2019-10-06 23:00:00 19.1 4 Sur 9 Sudeste 0 -- -- 81
2019-10-06 22:00:00 19.1 5 Sur 9 Sudeste 0 -- -- 80
2019-10-06 21:00:00 19.5 4 Sur 10 Sudeste 0 -- -- 76
2019-10-06 20:00:00 19.9 5 Sur 11 Sudeste 0 -- -- 77
2019-10-06 19:00:00 20.4 8 Sur 14 Sur 0 -- -- 76
2019-10-06 18:00:00 20.9 7 Sur 15 Sur 0 -- -- 76
2019-10-06 17:00:00 21.8 8 Sur 18 Sur 0 -- -- 73
2019-10-06 16:00:00 22.4 10 Sur 21 Sur 0 -- -- 71
2019-10-06 15:00:00 21.9 8 Sur 17 Sur 0 -- -- 69
2019-10-06 14:00:00 23.5 8 Sur 15 Sur 0 -- -- 63
2019-10-06 13:00:00 21.5 6 Sur 11 Sur 0 -- -- 66
2019-10-06 12:00:00 20.7 3 Sudeste 8 Sudoeste 0 -- -- 65
2019-10-06 11:00:00 19.5 2 Sur 14 Noroeste 0 -- -- 70
2019-10-06 10:00:00 18.3 4 Norte 14 Noroeste 0 -- -- 74
2019-10-06 09:00:00 17.4 9 Norte 15 Norte 0 -- -- 76
2019-10-06 08:00:00 17.7 10 Noroeste 15 Noroeste 0 -- -- 75
2019-10-06 07:00:00 17.8 10 Noroeste 14 Noroeste 0 -- -- 74
2019-10-06 06:00:00 18 6 Norte 15 Norte 0 -- -- 71
2019-10-06 05:00:00 17.9 10 Noroeste 17 Noroeste 0 -- -- 72
2019-10-06 04:00:00 18.1 5 Norte 7 Norte 0 -- -- 78
2019-10-06 03:00:00 18.4 3 Norte 17 Nordeste 0 -- -- 76
2019-10-06 02:00:00 18.8 9 Norte 14 Noroeste 0 -- -- 84
2019-10-06 01:00:00 18.6 6 Noroeste 10 Noroeste 0 -- -- 85
2019-10-06 00:00:00 18.8 0 Calma 6 Oeste 0 -- -- 84
2019-10-05 23:00:00 19 3 Oeste 8 Sudoeste 0 -- -- 83
2019-10-05 22:00:00 19.1 4 Oeste 9 Oeste 0 -- -- 82
2019-10-05 21:00:00 19.4 4 Sudoeste 8 Sur 0 -- -- 79
2019-10-05 20:00:00 20.2 3 Sur 10 Sur 0 -- -- 76
2019-10-05 19:00:00 20.6 5 Sur 12 Sur 0 -- -- 74
2019-10-05 18:00:00 21.4 7 Sur 12 Sur 0 -- -- 71
2019-10-05 17:00:00 21.8 6 Sudeste 15 Sudeste 0 -- -- 70
2019-10-05 16:00:00 21.7 5 Este 17 Nordeste 0 -- -- 68
2019-10-05 15:00:00 22.7 7 Este 18 Este 0 -- -- 65
2019-10-05 14:00:00 22.3 8 Este 19 Este 0 -- -- 66
2019-10-05 13:00:00 22.7 6 Este 16 Este 0 -- -- 64
2019-10-05 12:00:00 23.8 8 Sur 13 Sudeste 0 -- -- 69
2019-10-05 11:00:00 22.8 5 Sur 9 Sur 0 -- -- 70
2019-10-05 10:00:00 19.6 5 Norte 16 Nordeste 0 -- -- 81
2019-10-05 09:00:00 18.5 11 Norte 15 Norte 0 -- -- 89
2019-10-05 08:00:00 18.3 0 Calma 10 Nordeste 0 -- -- 90
2019-10-05 07:00:00 19 8 Nordeste 22 Este 0 -- -- 87
2019-10-05 06:00:00 19.6 16 Este 25 Este 0 -- -- 88
2019-10-05 05:00:00 18.6 4 Noroeste 17 Sur 0 -- -- 91
2019-10-05 04:00:00 18.3 0 Calma 13 Sudeste 0 -- -- 89
2019-10-05 03:00:00 18.2 4 Noroeste 12 Sudoeste 0 -- -- 89
2019-10-05 02:00:00 18.7 3 Noroeste 12 Norte 0 -- -- 88
2019-10-05 01:00:00 18.9 8 Nordeste 15 Nordeste 0 -- -- 83
2019-10-05 00:00:00 18.9 6 Norte 12 Norte 0 -- -- 78
2019-10-04 23:00:00 19.4 5 Nordeste 15 Norte 0 -- -- 73
2019-10-04 22:00:00 19.4 8 Noroeste 19 Norte 0 -- -- 76
2019-10-04 21:00:00 20 3 Noroeste 10 Noroeste 0 -- -- 74
2019-10-04 20:00:00 20.7 3 Sudoeste 17 Sudoeste 0 -- -- 72
2019-10-04 19:00:00 21.6 8 Sur 18 Sur 0 -- -- 70
2019-10-04 18:00:00 23.9 6 Sur 16 Sur 0 -- -- 67
2019-10-04 17:00:00 25.3 8 Sur 15 Sudoeste 0 -- -- 58
2019-10-04 16:00:00 25.6 9 Sur 17 Sur 0 -- -- 65
2019-10-04 15:00:00 23.2 8 Nordeste 12 Este 0 -- -- 74
2019-10-04 14:00:00 22.7 7 Este 14 Este 0 -- -- 74
2019-10-04 13:00:00 21.9 11 Este 15 Nordeste 0 -- -- 75
2019-10-04 12:00:00 22.6 8 Este 13 Sudeste 0 -- -- 72
2019-10-04 11:00:00 21.6 5 Este 12 Este 0 -- -- 73
2019-10-04 10:00:00 19.4 6 Norte 14 Norte 0 -- -- 80
2019-10-04 09:00:00 17.3 10 Norte 14 Norte 0 -- -- 87
2019-10-04 08:00:00 16.6 9 Norte 16 Norte 0 -- -- 87
2019-10-04 07:00:00 16.1 9 Noroeste 13 Noroeste 0 -- -- 87
2019-10-04 06:00:00 17.5 4 Norte 10 Nordeste 0 -- -- 90
2019-10-04 05:00:00 17.3 0 Calma 9 Noroeste 0 -- -- 91
2019-10-04 04:00:00 17.3 5 Norte 13 Noroeste 0 -- -- 92
2019-10-04 03:00:00 17.5 7 Noroeste 13 Noroeste 0 -- -- 90
2019-10-04 02:00:00 17.6 7 Noroeste 12 Noroeste 0 -- -- 89
2019-10-04 01:00:00 17.8 9 Norte 11 Norte 0 -- -- 87
2019-10-04 00:00:00 18.2 8 Noroeste 9 Norte 0 -- -- 86
2019-10-03 23:00:00 18.9 3 Este 10 Este 0 -- -- 84
2019-10-03 22:00:00 19.2 2 Norte 10 Este 0 -- -- 83
2019-10-03 21:00:00 19.6 3 Nordeste 9 Este 0 -- -- 81
2019-10-03 20:00:00 20.4 4 Sur 9 Sur 0 -- -- 74
2019-10-03 19:00:00 21.6 4 Sur 16 Sudoeste 0 -- -- 69
2019-10-03 18:00:00 23.1 9 Sur 20 Sur 0 -- -- 61
2019-10-03 17:00:00 24.1 8 Sur 15 Sur 0 -- -- 55
2019-10-03 16:00:00 24.3 7 Sur 15 Sur 0 -- -- 55
2019-10-03 15:00:00 23.9 8 Sur 14 Sur 0 -- -- 55
2019-10-03 14:00:00 24.1 7 Sur 15 Sur 0 -- -- 56
2019-10-03 13:00:00 24.1 9 Sur 15 Sur 0 -- -- 55
2019-10-03 12:00:00 22.8 7 Sur 13 Nordeste 0 -- -- 58
2019-10-03 11:00:00 19.6 10 Norte 19 Norte 0 -- -- 62
2019-10-03 10:00:00 17.5 11 Norte 20 Noroeste 0 -- -- 65
2019-10-03 09:00:00 16.8 12 Norte 22 Norte 0 -- -- 66
2019-10-03 08:00:00 16.6 9 Norte 18 Noroeste 0 -- -- 66
2019-10-03 07:00:00 16.6 11 Norte 22 Noroeste 0 -- -- 66
2019-10-03 06:00:00 16.7 10 Norte 18 Norte 0 -- -- 68
2019-10-03 05:00:00 17.2 11 Norte 20 Norte 0 -- -- 67
2019-10-03 04:00:00 17.5 10 Norte 17 Norte 0 -- -- 68
2019-10-03 03:00:00 18.3 12 Nordeste 22 Norte 0 -- -- 70
2019-10-03 02:00:00 19.5 4 Noroeste 6 Norte 0 -- -- 84
2019-10-03 01:00:00 19.8 4 Sudeste 14 Noroeste 0 -- -- 84
2019-10-03 00:00:00 19.8 5 Noroeste 11 Oeste 0 -- -- 83
2019-10-02 23:00:00 19.6 5 Oeste 10 Sudoeste 0 -- -- 85
2019-10-02 22:00:00 19.6 4 Sur 11 Sudoeste 0 -- -- 86
2019-10-02 21:00:00 19.8 3 Sur 10 Sur 0 -- -- 83
2019-10-02 20:00:00 20.5 5 Sur 12 Sur 0 -- -- 79
2019-10-02 19:00:00 22 7 Sur 13 Sur 0 -- -- 73
2019-10-02 18:00:00 23.9 8 Sur 15 Sur 0 -- -- 67
2019-10-02 17:00:00 25.3 8 Sur 17 Sudeste 0 -- -- 65
2019-10-02 16:00:00 25.7 8 Sur 15 Sur 0 -- -- 62
2019-10-02 15:00:00 25.7 7 Sur 15 Sur 0 -- -- 62
2019-10-02 14:00:00 25.8 10 Sur 31 Sudoeste 0 -- -- 63
2019-10-02 13:00:00 24.6 19 Sur 36 Sur 0 -- -- 63
2019-10-02 12:00:00 24 22 Sur 36 Sur 0 -- -- 60
2019-10-02 11:00:00 22.9 4 Oeste 9 Sur 0 -- -- 62
2019-10-02 10:00:00 21.1 5 Nordeste 15 Norte 0 -- -- 75
2019-10-02 09:00:00 18.9 5 Noroeste 15 Noroeste 0 -- -- 80
2019-10-02 08:00:00 17.4 7 Norte 10 Norte 0 -- -- 85
2019-10-02 07:00:00 17.3 6 Norte 19 Noroeste 0 -- -- 83
2019-10-02 06:00:00 17 4 Oeste 10 Noroeste 0 -- -- 82
2019-10-02 05:00:00 17.4 4 Oeste 12 Norte 0 -- -- 78
2019-10-02 04:00:00 17.9 7 Norte 16 Noroeste 0 -- -- 76
2019-10-02 03:00:00 18.3 7 Norte 16 Norte 0 -- -- 74
2019-10-02 02:00:00 19.1 7 Norte 14 Noroeste 0 -- -- 71
2019-10-02 01:00:00 19.9 8 Nordeste 27 Nordeste 0 -- -- 68
2019-10-02 00:00:00 20.6 10 Nordeste 24 Este 0 -- -- 74
2019-10-01 23:00:00 21.8 15 Este 26 Este 0 -- -- 86
2019-10-01 22:00:00 21.7 3 Norte 6 Noroeste 0 -- -- 91
2019-10-01 21:00:00 22.3 0 Calma 8 Este 0 -- -- 89
2019-10-01 20:00:00 22.5 5 Nordeste 9 Norte 0 -- -- 90
2019-10-01 19:00:00 23.2 4 Sur 22 Sur 0 -- -- 86
2019-10-01 18:00:00 24.1 12 Sur 34 Sudoeste 0 -- -- 83
2019-10-01 17:00:00 24.9 19 Sur 29 Sur 0 -- -- 78
2019-10-01 16:00:00 26.2 9 Sur 19 Sudoeste 0 -- -- 76
2019-10-01 15:00:00 26.6 8 Sur 17 Sur 0 -- -- 75
2019-10-01 14:00:00 26.3 7 Sur 14 Sur 0 -- -- 74
2019-10-01 13:00:00 25.5 6 Sur 12 Sur 0 -- -- 74
2019-10-01 12:00:00 24.7 6 Sur 15 Sur 0 -- -- 70
2019-10-01 11:00:00 22.5 5 Oeste 15 Noroeste 0 -- -- 78
2019-10-01 10:00:00 19.7 13 Noroeste 20 Noroeste 0 -- -- 85
2019-10-01 09:00:00 18 14 Noroeste 21 Noroeste 0 -- -- 91
2019-10-01 08:00:00 18.2 5 Noroeste 10 Noroeste 0 -- -- 95
2019-10-01 07:00:00 18.2 3 Oeste 5 Oeste 0 -- -- 95
2019-10-01 06:00:00 18.3 0 Calma 3 Norte 0 -- -- 94
2019-10-01 05:00:00 18.5 0 Calma 3 Sudoeste 0 -- -- 93
2019-10-01 04:00:00 18.9 0 Calma 5 Oeste 0 -- -- 91
2019-10-01 03:00:00 19.7 3 Sudoeste 12 Oeste 0 -- -- 89
2019-10-01 02:00:00 19.5 3 Oeste 9 Sudoeste 0 -- -- 90
2019-10-01 01:00:00 20 6 Oeste 13 Sudoeste 0 -- -- 90
2019-10-01 00:00:00 20.1 3 Sudoeste 13 Oeste 0 -- -- 88
2019-09-30 23:00:00 20.4 6 Sudoeste 18 Sudoeste 0 -- -- 89
2019-09-30 22:00:00 20.7 8 Sudoeste 25 Sudoeste 0 -- -- 91
2019-09-30 21:00:00 20.8 15 Sudoeste 29 Sudoeste 0 -- -- 90
2019-09-30 20:00:00 21.1 21 Sudoeste 35 Sudoeste 0 -- -- 87
2019-09-30 19:00:00 21.9 15 Sur 37 Sur 0 -- -- 85
2019-09-30 18:00:00 23.2 22 Sur 40 Sudoeste 0 -- -- 79
2019-09-30 17:00:00 24.2 24 Sur 39 Sur 0 -- -- 74
2019-09-30 16:00:00 25 24 Sur 36 Sudoeste 0 -- -- 72
2019-09-30 15:00:00 25.2 21 Sur 39 Sudoeste 0 -- -- 73
2019-09-30 14:00:00 25.1 24 Sur 42 Sur 0 -- -- 70
2019-09-30 13:00:00 25 18 Sur 37 Sur 0 -- -- 69
2019-09-30 12:00:00 24.6 15 Sur 31 Sudoeste 0 -- -- 71
2019-09-30 11:00:00 23.9 15 Sur 28 Sudoeste 0 -- -- 75
2019-09-30 10:00:00 22.3 8 Sudoeste 19 Noroeste 0 -- -- 74
2019-09-30 09:00:00 20.8 7 Oeste 18 Oeste 0 -- -- 79
2019-09-30 08:00:00 19.5 7 Noroeste 18 Noroeste 0 -- -- 78
2019-09-30 07:00:00 19.9 13 Noroeste 20 Noroeste 0 -- -- 66
2019-09-30 06:00:00 19.4 6 Noroeste 9 Noroeste 0 -- -- 88
2019-09-30 05:00:00 19.8 0 Calma 4 Nordeste 0 -- -- 92
2019-09-30 04:00:00 19.8 2 Nordeste 9 Noroeste 0 -- -- 90
2019-09-30 03:00:00 20.1 5 Noroeste 9 Noroeste 0 -- -- 86
2019-09-30 02:00:00 21.5 6 Nordeste 19 Norte 0 -- -- 81
2019-09-30 01:00:00 21.2 3 Nordeste 12 Norte 0 -- -- 81
2019-09-30 00:00:00 21.4 2 Sudeste 15 Noroeste 0 -- -- 85
2019-09-29 23:00:00 21.6 0 Calma 9 Oeste 0 -- -- 91
2019-09-29 22:00:00 22 5 Oeste 9 Oeste 0 -- -- 93
2019-09-29 21:00:00 22.4 5 Noroeste 22 Oeste 0 -- -- 92
2019-09-29 20:00:00 22.9 12 Sudoeste 30 Sudoeste 0 -- -- 91
2019-09-29 19:00:00 23.5 15 Sudoeste 36 Oeste 0 -- -- 88
2019-09-29 18:00:00 24.3 14 Sudoeste 46 Sudoeste 0 -- -- 84
2019-09-29 17:00:00 25 17 Sudoeste 46 Sudoeste 0 -- -- 82
2019-09-29 16:00:00 25.3 20 Sudoeste 42 Sur 0 -- -- 80
2019-09-29 15:00:00 25.6 17 Sudoeste 48 Sur 0 -- -- 77
2019-09-29 14:00:00 26 16 Sur 44 Sudoeste 0 -- -- 76
2019-09-29 13:00:00 25.6 17 Sudoeste 39 Sudoeste 0 -- -- 76
2019-09-29 12:00:00 25.3 11 Sudoeste 31 Sur 0 -- -- 73
2019-09-29 11:00:00 24.6 9 Sudoeste 19 Oeste 0 -- -- 74
2019-09-29 10:00:00 22.5 7 Sudoeste 19 Sudoeste 0 -- -- 80
2019-09-29 09:00:00 20.6 6 Sudoeste 18 Oeste 0 -- -- 86
2019-09-29 08:00:00 19.5 11 Sudoeste 20 Sudoeste 0 -- -- 91
2019-09-29 07:00:00 19.5 9 Oeste 19 Oeste 0 -- -- 91
2019-09-29 06:00:00 19 6 Oeste 15 Sudoeste 0 -- -- 91
2019-09-29 05:00:00 19 3 Noroeste 10 Oeste 0 -- -- 91
2019-09-29 04:00:00 18.8 5 Oeste 12 Sudoeste 0 -- -- 94
2019-09-29 03:00:00 18.7 0 Calma 6 Sur 0 -- -- 92
2019-09-29 02:00:00 18.8 3 Noroeste 6 Norte 0 -- -- 90
2019-09-29 01:00:00 19.4 3 Noroeste 13 Oeste 0 -- -- 86
2019-09-29 00:00:00 19.5 4 Noroeste 8 Noroeste 0 -- -- 87
2019-09-28 23:00:00 19.8 5 Sudoeste 10 Sur 0 -- -- 86
2019-09-28 22:00:00 19.9 5 Sur 11 Sur 0 -- -- 88
2019-09-28 21:00:00 20.1 6 Sur 12 Sur 0 -- -- 85
2019-09-28 20:00:00 20.7 8 Sur 12 Sur 0 -- -- 81
2019-09-28 19:00:00 22 6 Sur 14 Sur 0 -- -- 71
2019-09-28 18:00:00 23.8 8 Sur 14 Sur 0 -- -- 65
2019-09-28 17:00:00 24.9 9 Sur 15 Sudeste 0 -- -- 64
2019-09-28 16:00:00 25 4 Sudeste 13 Este 0 -- -- 63
2019-09-28 15:00:00 24.9 6 Este 16 Este 0 -- -- 64
2019-09-28 14:00:00 23.2 13 Este 25 Este 0 -- -- 67
2019-09-28 13:00:00 24.3 11 Este 22 Este 0 -- -- 62
2019-09-28 12:00:00 25.3 7 Este 16 Este 0 -- -- 58
2019-09-28 11:00:00 24.3 5 Este 8 Nordeste 0 -- -- 61
2019-09-28 10:00:00 22.3 4 Norte 14 Norte 0 -- -- 73
2019-09-28 09:00:00 20.7 10 Norte 14 Norte 0 -- -- 78
2019-09-28 08:00:00 20.1 4 Norte 10 Norte 0 -- -- 81
2019-09-28 07:00:00 19.9 4 Norte 13 Noroeste 0 -- -- 84
2019-09-28 06:00:00 20.3 8 Noroeste 12 Norte 0 -- -- 85
2019-09-28 05:00:00 20.7 0 Calma 7 Norte 0 -- -- 86
2019-09-28 04:00:00 21.2 4 Norte 12 Norte 0 -- -- 87
2019-09-28 03:00:00 21.5 10 Norte 16 Norte 0 -- -- 87
2019-09-28 02:00:00 21.7 9 Norte 15 Nordeste 0 -- -- 90
2019-09-28 01:00:00 22.3 8 Nordeste 13 Nordeste 0 -- -- 93
2019-09-28 00:00:00 22.6 4 Norte 13 Nordeste 0 -- -- 89
2019-09-27 23:00:00 22.9 2 Nordeste 14 Sudoeste 0 -- -- 90
2019-09-27 22:00:00 22.9 6 Oeste 13 Sudoeste 0 -- -- 91
2019-09-27 21:00:00 23.1 5 Sur 19 Oeste 0 -- -- 90
2019-09-27 20:00:00 23.2 6 Sudoeste 26 Sudoeste 0 -- -- 89
2019-09-27 19:00:00 23.7 12 Sur 28 Sudoeste 0 -- -- 86
2019-09-27 18:00:00 24.6 16 Sur 32 Sur 0 -- -- 85
2019-09-27 17:00:00 25.5 17 Sur 30 Sur 0 -- -- 79
2019-09-27 16:00:00 26.6 12 Sur 24 Sudoeste 0 -- -- 77
2019-09-27 15:00:00 26.5 9 Sur 14 Sur 0 -- -- 78
2019-09-27 14:00:00 26.6 9 Sur 14 Sur 0 -- -- 75
2019-09-27 13:00:00 24.7 6 Sur 11 Sur 0 -- -- 77
2019-09-27 12:00:00 25.2 7 Sur 11 Sudeste 0 -- -- 73
2019-09-27 11:00:00 24.2 5 Sudeste 7 Sudeste 0 -- -- 73
2019-09-27 10:00:00 22.6 2 Este 10 Norte 0 -- -- 77
2019-09-27 09:00:00 20.3 7 Noroeste 14 Noroeste 0 -- -- 84
2019-09-27 08:00:00 19.5 10 Noroeste 16 Noroeste 0 -- -- 85
2019-09-27 07:00:00 19.4 4 Noroeste 16 Noroeste 0 -- -- 88
2019-09-27 06:00:00 19.6 11 Noroeste 17 Noroeste 0 -- -- 85
2019-09-27 05:00:00 20.3 12 Noroeste 18 Noroeste 0 -- -- 81
2019-09-27 04:00:00 20.4 12 Noroeste 18 Noroeste 0 -- -- 83
2019-09-27 03:00:00 19.8 11 Noroeste 15 Noroeste 0 -- -- 85
2019-09-27 02:00:00 19.6 5 Norte 11 Noroeste 0 -- -- 86
2019-09-27 01:00:00 20.1 7 Noroeste 13 Noroeste 0 -- -- 85
2019-09-27 00:00:00 20.9 7 Noroeste 15 Noroeste 0 -- -- 80
2019-09-26 23:00:00 21.4 6 Oeste 25 Sudoeste 0 -- -- 81
2019-09-26 22:00:00 22.1 10 Sudoeste 21 Oeste 0 -- -- 83
2019-09-26 21:00:00 22.1 10 Sudoeste 28 Sudoeste 0 -- -- 84
2019-09-26 20:00:00 22.3 9 Sudoeste 27 Sur 0 -- -- 83
2019-09-26 19:00:00 23 9 Sur 23 Sur 0 -- -- 79
2019-09-26 18:00:00 24.1 10 Sur 19 Sur 0 -- -- 76
2019-09-26 17:00:00 24.5 6 Sur 13 Este 0 -- -- 78
2019-09-26 16:00:00 23.3 9 Este 15 Sudeste 0 -- -- 78
2019-09-26 15:00:00 22.8 11 Este 16 Este 0 -- -- 79
2019-09-26 14:00:00 23.3 11 Este 18 Este 0 -- -- 77
2019-09-26 13:00:00 25 5 Sudeste 11 Sudeste 0 -- -- 72
2019-09-26 12:00:00 24 4 Sudeste 10 Este 0 -- -- 75
2019-09-26 11:00:00 23 5 Sudeste 10 Sudeste 0 -- -- 76
2019-09-26 10:00:00 21.1 4 Este 7 Este 0 -- -- 81
2019-09-26 09:00:00 19.2 0 Calma 9 Norte 0 -- -- 84
2019-09-26 08:00:00 18.8 3 Nordeste 11 Noroeste 0 -- -- 84
2019-09-26 07:00:00 19.1 8 Noroeste 15 Noroeste 0 -- -- 82
2019-09-26 06:00:00 18.9 12 Noroeste 19 Norte 0 -- -- 83
2019-09-26 05:00:00 19.4 12 Noroeste 16 Noroeste 0 -- -- 82
2019-09-26 04:00:00 19.5 9 Noroeste 17 Oeste 0 -- -- 81
2019-09-26 03:00:00 19.7 8 Oeste 15 Sudoeste 0 -- -- 81
2019-09-26 02:00:00 19.4 4 Oeste 17 Oeste 0 -- -- 80
2019-09-26 01:00:00 19.6 8 Oeste 15 Sudoeste 0 -- -- 79
2019-09-26 00:00:00 19.6 7 Oeste 15 Sudoeste 0 -- -- 79
2019-09-25 23:00:00 19.5 7 Sudoeste 13 Sudoeste 0 -- -- 81
2019-09-25 22:00:00 19.8 4 Oeste 12 Sudoeste 0 -- -- 79
2019-09-25 21:00:00 19.8 4 Sur 9 Sudoeste 0 -- -- 79
2019-09-25 20:00:00 20.4 0 Calma 9 Sudeste 0 -- -- 77
2019-09-25 19:00:00 21.3 5 Este 16 Sudeste 0 -- -- 73
2019-09-25 18:00:00 23.1 5 Este 16 Este 0 -- -- 66
2019-09-25 17:00:00 23.8 5 Este 14 Este 0 -- -- 64
2019-09-25 16:00:00 23.3 7 Este 16 Sudeste 0 -- -- 65
2019-09-25 15:00:00 24.4 8 Este 17 Este 0 -- -- 63
2019-09-25 14:00:00 24.8 5 Sudeste 12 Sudeste 0 -- -- 61
2019-09-25 13:00:00 23.9 8 Sudeste 12 Sudeste 0 -- -- 62
2019-09-25 12:00:00 24.2 6 Sur 11 Sudeste 0 -- -- 61
2019-09-25 11:00:00 22.5 3 Nordeste 19 Norte 0 -- -- 63
2019-09-25 10:00:00 20.1 10 Norte 17 Norte 0 -- -- 67
2019-09-25 09:00:00 18.8 10 Norte 20 Norte 0 -- -- 70
2019-09-25 08:00:00 18.8 13 Norte 18 Norte 0 -- -- 68
2019-09-25 07:00:00 19.3 11 Norte 22 Norte 0 -- -- 68
2019-09-25 06:00:00 19.4 14 Norte 24 Norte 0 -- -- 72
2019-09-25 05:00:00 19 8 Noroeste 12 Este 0 -- -- 76
2019-09-25 04:00:00 19.9 6 Nordeste 12 Nordeste 0 -- -- 74
2019-09-25 03:00:00 20.5 9 Norte 24 Norte 0 -- -- 65
2019-09-25 02:00:00 20.2 18 Norte 23 Norte 0 -- -- 69
2019-09-25 01:00:00 19.7 9 Norte 14 Norte 0 -- -- 80
2019-09-25 00:00:00 20.4 0 Calma 5 Oeste 0 -- -- 91
2019-09-24 23:00:00 20.8 4 Noroeste 13 Nordeste 0 -- -- 91
2019-09-24 22:00:00 20.6 10 Nordeste 15 Nordeste 0 -- -- 89
2019-09-24 21:00:00 21 8 Nordeste 22 Nordeste 0 -- -- 89
2019-09-24 20:00:00 20.8 11 Nordeste 25 Este 0 -- -- 90
2019-09-24 19:00:00 21.9 12 Este 20 Este 0 -- -- 87
2019-09-24 18:00:00 24.3 9 Este 20 Sur 0 -- -- 78
2019-09-24 17:00:00 26.1 8 Sur 25 Sudoeste 0 -- -- 74
2019-09-24 16:00:00 26 17 Sur 35 Sudoeste 0 -- -- 71
2019-09-24 15:00:00 26 13 Sur 30 Sur 0 -- -- 71
2019-09-24 14:00:00 25.8 18 Sur 36 Sudoeste 0 -- -- 73
2019-09-24 13:00:00 26.3 14 Sudoeste 32 Sur 0 -- -- 64
2019-09-24 12:00:00 25.5 12 Sudoeste 39 Sudoeste 0 -- -- 51
2019-09-24 11:00:00 23.8 13 Sudoeste 39 Oeste 0 -- -- 58
2019-09-24 10:00:00 21.7 8 Sudoeste 19 Sudoeste 0 -- -- 60
2019-09-24 09:00:00 19.3 3 Sur 8 Sudeste 0 -- -- 78
2019-09-24 08:00:00 17.5 4 Noroeste 6 Noroeste 0 -- -- 83
2019-09-24 07:00:00 18.1 5 Oeste 14 Noroeste 0 -- -- 79
2019-09-24 06:00:00 18.2 6 Noroeste 14 Noroeste 0 -- -- 79
2019-09-24 05:00:00 18.5 12 Noroeste 18 Noroeste 0 -- -- 80
2019-09-24 04:00:00 18.9 11 Noroeste 17 Noroeste 0 -- -- 81
2019-09-24 03:00:00 19 9 Noroeste 11 Noroeste 0 -- -- 82
2019-09-24 02:00:00 19.4 9 Noroeste 13 Noroeste 0 -- -- 80
2019-09-24 01:00:00 19.5 4 Norte 11 Noroeste 0 -- -- 79
2019-09-24 00:00:00 20.1 5 Noroeste 15 Oeste 0 -- -- 75
2019-09-23 23:00:00 21 10 Oeste 19 Oeste 0 -- -- 72
2019-09-23 22:00:00 21.4 12 Oeste 23 Noroeste 0 -- -- 70
2019-09-23 21:00:00 21.2 9 Oeste 32 Sudoeste 0 -- -- 73
2019-09-23 20:00:00 21.5 16 Sudoeste 35 Oeste 0 -- -- 73
2019-09-23 19:00:00 21.6 19 Sur 37 Sudoeste 0 -- -- 77
2019-09-23 18:00:00 22.4 11 Sur 20 Sudoeste 0 -- -- 74
2019-09-23 17:00:00 23.8 10 Sur 30 Sudoeste 0 -- -- 68
2019-09-23 16:00:00 25.1 10 Sur 19 Sur 0 -- -- 68
2019-09-23 15:00:00 25.2 10 Sur 19 Sur 0 -- -- 65
2019-09-23 14:00:00 24.4 11 Sur 31 Sur 0 -- -- 66
2019-09-23 13:00:00 24.4 10 Sur 18 Sudoeste 0 -- -- 64
2019-09-23 12:00:00 23.6 7 Sur 11 Sur 0 -- -- 66
2019-09-23 11:00:00 21.5 4 Sudoeste 13 Noroeste 0 -- -- 64
2019-09-23 10:00:00 19.5 5 Noroeste 14 Noroeste 0 -- -- 74
2019-09-23 09:00:00 18.4 8 Noroeste 17 Noroeste 0 -- -- 76
2019-09-23 08:00:00 17.1 11 Noroeste 15 Noroeste 0 -- -- 82
2019-09-23 07:00:00 17.6 11 Norte 17 Noroeste 0 -- -- 76
2019-09-23 06:00:00 17.8 10 Norte 15 Noroeste 0 -- -- 75
2019-09-23 05:00:00 17.7 12 Noroeste 18 Noroeste 0 -- -- 79
2019-09-23 04:00:00 18.1 11 Noroeste 17 Norte 0 -- -- 78
2019-09-23 03:00:00 18 8 Norte 13 Noroeste 0 -- -- 78
2019-09-23 02:00:00 17.9 9 Norte 13 Norte 0 -- -- 83
2019-09-23 01:00:00 17.7 8 Norte 27 Norte 0 -- -- 82
2019-09-23 00:00:00 17.6 15 Norte 27 Nordeste 0 -- -- 89
2019-09-22 23:00:00 19.5 4 Norte 15 Sur 7.6 -- -- 95
2019-09-22 22:00:00 21.2 8 Este 37 Este 0.4 -- -- 84
2019-09-22 21:00:00 21.8 14 Este 39 Este 0 -- -- 84
2019-09-22 20:00:00 22.8 3 Sudeste 22 Sur 0 -- -- 92
2019-09-22 19:00:00 23.6 12 Sur 22 Sudoeste 0 -- -- 88
2019-09-22 18:00:00 24.7 14 Sur 28 Sudoeste 0 -- -- 84
2019-09-22 17:00:00 24.9 14 Sur 36 Sudoeste 0 -- -- 84
2019-09-22 16:00:00 25.2 21 Sur 39 Sur 0 -- -- 84
2019-09-22 15:00:00 25.1 19 Sur 46 Sur 0 -- -- 81
2019-09-22 14:00:00 24.8 15 Sur 44 Sudoeste 0 -- -- 81
2019-09-22 13:00:00 24.7 15 Sudoeste 37 Sur 0 -- -- 80
2019-09-22 12:00:00 24.2 15 Sur 31 Sur 0 -- -- 79
2019-09-22 11:00:00 23.4 10 Sur 23 Sur 0 -- -- 81
2019-09-22 10:00:00 22 4 Sudeste 6 Sudeste 0 -- -- 83
2019-09-22 09:00:00 19.8 0 Calma 4 Este 0 -- -- 92
2019-09-22 08:00:00 18.7 0 Calma 14 Noroeste 0 -- -- 90
2019-09-22 07:00:00 18.6 12 Noroeste 19 Noroeste 0 -- -- 88
2019-09-22 06:00:00 19.4 13 Noroeste 20 Noroeste 0 -- -- 83
2019-09-22 05:00:00 18.9 8 Noroeste 17 Noroeste 0 -- -- 85
2019-09-22 04:00:00 18.7 4 Noroeste 25 Noroeste 0 -- -- 87
2019-09-22 03:00:00 19.1 10 Noroeste 17 Noroeste 0 -- -- 86
2019-09-22 02:00:00 19.3 9 Noroeste 18 Norte 0 -- -- 87
2019-09-22 01:00:00 19.3 12 Noroeste 17 Noroeste 0 -- -- 89
2019-09-22 00:00:00 19.1 13 Noroeste 18 Norte 0 -- -- 92
2019-09-21 23:00:00 18.9 12 Norte 21 Norte 0 -- -- 94
2019-09-21 22:00:00 19.1 10 Norte 21 Norte 0 -- -- 93
2019-09-21 21:00:00 19.2 11 Norte 19 Norte 0 -- -- 93
2019-09-21 20:00:00 19.2 14 Norte 19 Norte 0 -- -- 93
2019-09-21 19:00:00 19.6 8 Norte 18 Este 0 -- -- 92
2019-09-21 18:00:00 19.2 11 Nordeste 20 Nordeste 0 -- -- 98
2019-09-21 17:00:00 18.6 12 Nordeste 27 Este 0 -- -- 99
2019-09-21 16:00:00 18.9 8 Este 23 Este 3.4 -- -- 98
2019-09-21 15:00:00 18.9 10 Este 23 Norte 5 -- -- 97
2019-09-21 14:00:00 19.3 5 Noroeste 28 Este 1 -- -- 98
2019-09-21 13:00:00 18.9 10 Noroeste 25 Oeste 1 -- -- 97
2019-09-21 12:00:00 19 13 Nordeste 29 Nordeste 12.2 -- -- 97
2019-09-21 11:00:00 20 10 Oeste 28 Nordeste 1.2 -- -- 94
2019-09-21 10:00:00 20.5 8 Norte 18 Norte 0 -- -- 91
2019-09-21 09:00:00 20.7 8 Nordeste 18 Norte 0.2 -- -- 92
2019-09-21 08:00:00 21 9 Norte 21 Norte 0 -- -- 84
2019-09-21 07:00:00 21.2 13 Norte 21 Noroeste 0 -- -- 81
2019-09-21 06:00:00 20.7 16 Norte 27 Norte 0 -- -- 83
2019-09-21 05:00:00 20.6 15 Norte 24 Norte 0 -- -- 87
2019-09-21 04:00:00 20.8 14 Norte 24 Norte 0 -- -- 87
2019-09-21 03:00:00 20.4 21 Norte 28 Norte 0 -- -- 86
2019-09-21 02:00:00 20.4 19 Norte 23 Norte 0 -- -- 86
2019-09-21 01:00:00 20.7 17 Norte 24 Norte 0 -- -- 86
2019-09-21 00:00:00 20.8 15 Norte 23 Norte 0 -- -- 85
2019-09-20 23:00:00 20.8 15 Norte 19 Norte 0 -- -- 86
2019-09-20 22:00:00 21.1 9 Norte 17 Este 0 -- -- 86
2019-09-20 21:00:00 21.4 11 Nordeste 24 Este 0 -- -- 88
2019-09-20 20:00:00 21.6 15 Este 27 Este 0 -- -- 85
2019-09-20 19:00:00 22 17 Este 30 Nordeste 0 -- -- 86
2019-09-20 18:00:00 22.5 22 Este 36 Este 0 -- -- 88
2019-09-20 17:00:00 23 23 Este 33 Este 0 -- -- 86
2019-09-20 16:00:00 23.5 20 Este 33 Este 0 -- -- 80
2019-09-20 15:00:00 23.6 21 Este 30 Este 0 -- -- 79
2019-09-20 14:00:00 23.7 18 Este 31 Este 0 -- -- 77
2019-09-20 13:00:00 24.2 12 Este 29 Este 0 -- -- 73
2019-09-20 12:00:00 23.5 19 Este 27 Este 0 -- -- 71
2019-09-20 11:00:00 24.7 5 Sur 9 Sudeste 0 -- -- 63
2019-09-20 10:00:00 22.9 3 Sudeste 15 Norte 0 -- -- 68
2019-09-20 09:00:00 20.5 13 Norte 19 Norte 0 -- -- 70
2019-09-20 08:00:00 19.3 13 Norte 22 Norte 0 -- -- 76
2019-09-20 07:00:00 19.1 14 Norte 21 Norte 0 -- -- 80
2019-09-20 06:00:00 19.5 15 Norte 26 Norte 0 -- -- 80
2019-09-20 05:00:00 19.5 23 Norte 30 Norte 0 -- -- 80
2019-09-20 04:00:00 19.3 17 Norte 23 Norte 0 -- -- 81
2019-09-20 03:00:00 19.4 5 Norte 12 Norte 0 -- -- 83
2019-09-20 02:00:00 20 3 Noroeste 15 Noroeste 0 -- -- 80
2019-09-20 01:00:00 20.3 7 Noroeste 11 Noroeste 0 -- -- 85
2019-09-20 00:00:00 20.3 5 Noroeste 9 Noroeste 0 -- -- 84
2019-09-19 23:00:00 20.4 4 Oeste 6 Sudoeste 0 -- -- 85
2019-09-19 22:00:00 20.7 2 Noroeste 5 Noroeste 0 -- -- 83
2019-09-19 21:00:00 21.2 0 Calma 6 Este 0 -- -- 80
2019-09-19 20:00:00 22.1 2 Sur 8 Sudeste 0 -- -- 76
2019-09-19 19:00:00 23.3 3 Sur 10 Sudeste 0 -- -- 71
2019-09-19 18:00:00 24.5 5 Este 12 Este 0 -- -- 67
2019-09-19 17:00:00 24.8 4 Sudeste 17 Este 0 -- -- 65
2019-09-19 16:00:00 24.6 8 Este 17 Este 0 -- -- 66
2019-09-19 15:00:00 24.6 9 Este 24 Este 0 -- -- 68
2019-09-19 14:00:00 24.5 13 Este 23 Este 0 -- -- 67
2019-09-19 13:00:00 26.2 7 Este 24 Este 0 -- -- 59
2019-09-19 12:00:00 26.2 6 Este 12 Sudeste 0 -- -- 60
2019-09-19 11:00:00 25.1 4 Sudeste 9 Sur 0 -- -- 63
2019-09-19 10:00:00 23.5 4 Este 10 Norte 0 -- -- 70
2019-09-19 09:00:00 21.2 7 Noroeste 12 Noroeste 0 -- -- 69
2019-09-19 08:00:00 20.1 5 Noroeste 7 Noroeste 0 -- -- 77
2019-09-19 07:00:00 20.7 2 Nordeste 4 Norte 0 -- -- 77
2019-09-19 06:00:00 20.8 2 Norte 15 Norte 0 -- -- 68
2019-09-19 05:00:00 21.1 12 Norte 19 Norte 0 -- -- 66
2019-09-19 04:00:00 20.2 12 Norte 19 Norte 0 -- -- 71
2019-09-19 03:00:00 20.5 10 Norte 21 Nordeste 0 -- -- 71
2019-09-19 02:00:00 20.5 19 Noroeste 42 Norte 1.2 -- -- 74
2019-09-19 01:00:00 21.8 15 Noroeste 27 Norte 0 -- -- 69
2019-09-19 00:00:00 22.2 17 Norte 26 Norte 0 -- -- 66
2019-09-18 23:00:00 22.1 15 Norte 20 Norte 0 -- -- 65
2019-09-18 22:00:00 22.4 6 Norte 20 Noroeste 0 -- -- 63
2019-09-18 21:00:00 22.5 12 Oeste 31 Noroeste 0 -- -- 64
2019-09-18 20:00:00 22.9 15 Noroeste 26 Noroeste 0 -- -- 67
2019-09-18 19:00:00 23.7 3 Nordeste 15 Noroeste 0 -- -- 62
2019-09-18 18:00:00 24.4 2 Sur 9 Sur 0 -- -- 67
2019-09-18 17:00:00 26.1 6 Sudeste 14 Sudeste 0 -- -- 61
2019-09-18 16:00:00 26.6 6 Sur 17 Este 0 -- -- 60
2019-09-18 15:00:00 26.5 7 Este 19 Este 0 -- -- 58
2019-09-18 14:00:00 26.3 9 Este 18 Este 0 -- -- 61
2019-09-18 13:00:00 27.3 6 Sudeste 13 Sudeste 0 -- -- 60
2019-09-18 12:00:00 26.3 5 Este 10 Este 0 -- -- 73
2019-09-18 11:00:00 25.4 6 Este 13 Este 0 -- -- 66
2019-09-18 10:00:00 24.3 4 Sur 13 Nordeste 0 -- -- 71
2019-09-18 09:00:00 22.2 2 Este 21 Norte 0 -- -- 73
2019-09-18 08:00:00 20.6 9 Norte 19 Norte 0 -- -- 77
2019-09-18 07:00:00 20.4 3 Sur 27 Oeste 0 -- -- 78
2019-09-18 06:00:00 20.2 3 Sur 21 Noroeste 0 -- -- 79
2019-09-18 05:00:00 20.6 4 Sur 13 Oeste 0 -- -- 92
2019-09-18 04:00:00 20.8 0 Calma 10 Oeste 0 -- -- 92
2019-09-18 03:00:00 20.9 2 Oeste 10 Sur 0 -- -- 95
2019-09-18 02:00:00 20.8 0 Calma 10 Oeste 0 -- -- 93
2019-09-18 01:00:00 21.2 5 Oeste 15 Sudoeste 0 -- -- 92
2019-09-18 00:00:00 21.4 8 Oeste 16 Oeste 0 -- -- 90
2019-09-17 23:00:00 21.2 10 Oeste 15 Oeste 0 -- -- 89
2019-09-17 22:00:00 21.3 3 Norte 8 Sudoeste 0 -- -- 87
2019-09-17 21:00:00 22 0 Calma 9 Sudoeste 0 -- -- 87